sensor_id;sensor_type;location;lat;lon;timestamp;temperature;humidity
8178;DHT22;4130;48.740;9.132;2023-09-19T00:00:56;16.30;99.90
8178;DHT22;4130;48.740;9.132;2023-09-19T00:03:24;16.30;99.90
8178;DHT22;4130;48.740;9.132;2023-09-19T00:05:52;16.30;99.90
8178;DHT22;4130;48.740;9.132;2023-09-19T00:08:19;16.20;99.90
8178;DHT22;4130;48.740;9.132;2023-09-19T00:10:49;16.20;99.90
8178;DHT22;4130;48.740;9.132;2023-09-19T00:13:16;16.20;99.90
8178;DHT22;4130;48.740;9.132;2023-09-19T00:15:45;16.20;99.90
8178;DHT22;4130;48.740;9.132;2023-09-19T00:18:14;16.20;99.90
8178;DHT22;4130;48.740;9.132;2023-09-19T00:20:44;16.20;99.90
8178;DHT22;4130;48.740;9.132;2023-09-19T00:23:13;16.20;99.90
8178;DHT22;4130;48.740;9.132;2023-09-19T00:25:40;16.20;99.90
8178;DHT22;4130;48.740;9.132;2023-09-19T00:28:07;16.10;99.90
8178;DHT22;4130;48.740;9.132;2023-09-19T00:30:35;16.10;99.90
8178;DHT22;4130;48.740;9.132;2023-09-19T00:33:04;16.10;99.90
8178;DHT22;4130;48.740;9.132;2023-09-19T00:35:33;16.10;99.90
8178;DHT22;4130;48.740;9.132;2023-09-19T00:38:01;16.10;99.90
8178;DHT22;4130;48.740;9.132;2023-09-19T00:40:29;16.00;99.90
8178;DHT22;4130;48.740;9.132;2023-09-19T00:42:57;16.00;99.90
8178;DHT22;4130;48.740;9.132;2023-09-19T00:45:26;16.00;99.90
8178;DHT22;4130;48.740;9.132;2023-09-19T00:47:54;16.00;99.90
8178;DHT22;4130;48.740;9.132;2023-09-19T00:50:24;16.00;99.90
8178;DHT22;4130;48.740;9.132;2023-09-19T00:52:54;16.00;99.90
8178;DHT22;4130;48.740;9.132;2023-09-19T00:55:25;16.00;99.90
8178;DHT22;4130;48.740;9.132;2023-09-19T00:57:55;16.00;99.90
8178;DHT22;4130;48.740;9.132;2023-09-19T01:00:24;15.90;99.90
8178;DHT22;4130;48.740;9.132;2023-09-19T01:02:51;15.90;99.90
8178;DHT22;4130;48.740;9.132;2023-09-19T01:05:18;15.90;99.90
8178;DHT22;4130;48.740;9.132;2023-09-19T01:07:45;16.00;99.90
8178;DHT22;4130;48.740;9.132;2023-09-19T01:10:16;15.90;99.90
8178;DHT22;4130;48.740;9.132;2023-09-19T01:12:52;15.90;99.90
8178;DHT22;4130;48.740;9.132;2023-09-19T01:15:26;16.00;99.90
8178;DHT22;4130;48.740;9.132;2023-09-19T01:18:01;16.00;99.90
8178;DHT22;4130;48.740;9.132;2023-09-19T01:20:37;16.00;99.90
8178;DHT22;4130;48.740;9.132;2023-09-19T01:23:13;16.00;99.90
8178;DHT22;4130;48.740;9.132;2023-09-19T01:26:03;16.10;99.90
8178;DHT22;4130;48.740;9.132;2023-09-19T01:28:39;16.10;99.90
8178;DHT22;4130;48.740;9.132;2023-09-19T01:31:14;16.10;99.90
8178;DHT22;4130;48.740;9.132;2023-09-19T01:33:57;16.10;99.90
8178;DHT22;4130;48.740;9.132;2023-09-19T01:36:26;16.10;99.90
8178;DHT22;4130;48.740;9.132;2023-09-19T01:38:55;16.10;99.90
8178;DHT22;4130;48.740;9.132;2023-09-19T01:41:33;16.10;99.90
8178;DHT22;4130;48.740;9.132;2023-09-19T01:44:07;16.10;99.90
8178;DHT22;4130;48.740;9.132;2023-09-19T01:46:40;16.20;99.90
8178;DHT22;4130;48.740;9.132;2023-09-19T01:49:22;16.20;99.90
8178;DHT22;4130;48.740;9.132;2023-09-19T01:52:00;16.20;99.90
8178;DHT22;4130;48.740;9.132;2023-09-19T01:54:33;16.20;99.90
8178;DHT22;4130;48.740;9.132;2023-09-19T01:57:09;16.20;99.90
8178;DHT22;4130;48.740;9.132;2023-09-19T01:59:43;16.20;99.90
8178;DHT22;4130;48.740;9.132;2023-09-19T02:02:14;16.20;99.90
8178;DHT22;4130;48.740;9.132;2023-09-19T02:04:43;16.20;99.90
8178;DHT22;4130;48.740;9.132;2023-09-19T02:07:10;16.10;99.90
8178;DHT22;4130;48.740;9.132;2023-09-19T02:09:37;16.10;99.90
8178;DHT22;4130;48.740;9.132;2023-09-19T02:12:05;16.00;99.90
8178;DHT22;4130;48.740;9.132;2023-09-19T02:14:32;16.00;99.90
8178;DHT22;4130;48.740;9.132;2023-09-19T02:16:59;15.90;99.90
8178;DHT22;4130;48.740;9.132;2023-09-19T02:19:28;15.90;99.90
8178;DHT22;4130;48.740;9.132;2023-09-19T02:21:56;15.90;99.90
8178;DHT22;4130;48.740;9.132;2023-09-19T02:24:23;15.90;99.90
8178;DHT22;4130;48.740;9.132;2023-09-19T02:26:52;15.80;99.90
8178;DHT22;4130;48.740;9.132;2023-09-19T02:29:20;15.80;99.90
8178;DHT22;4130;48.740;9.132;2023-09-19T02:31:47;15.70;99.90
8178;DHT22;4130;48.740;9.132;2023-09-19T02:34:14;15.70;99.90
8178;DHT22;4130;48.740;9.132;2023-09-19T02:36:43;15.60;99.90
8178;DHT22;4130;48.740;9.132;2023-09-19T02:39:11;15.60;99.90
8178;DHT22;4130;48.740;9.132;2023-09-19T02:41:39;15.60;99.90
8178;DHT22;4130;48.740;9.132;2023-09-19T02:44:07;15.60;99.90
8178;DHT22;4130;48.740;9.132;2023-09-19T02:46:34;15.60;99.90
8178;DHT22;4130;48.740;9.132;2023-09-19T02:49:03;15.50;99.90
8178;DHT22;4130;48.740;9.132;2023-09-19T02:51:31;15.50;99.90
8178;DHT22;4130;48.740;9.132;2023-09-19T02:54:00;15.50;99.90
8178;DHT22;4130;48.740;9.132;2023-09-19T02:56:28;15.40;99.90
8178;DHT22;4130;48.740;9.132;2023-09-19T02:58:56;15.40;99.90
8178;DHT22;4130;48.740;9.132;2023-09-19T03:01:23;15.40;99.90
8178;DHT22;4130;48.740;9.132;2023-09-19T03:03:50;15.50;99.90
8178;DHT22;4130;48.740;9.132;2023-09-19T03:06:19;15.50;99.90
8178;DHT22;4130;48.740;9.132;2023-09-19T03:08:46;15.60;99.90
8178;DHT22;4130;48.740;9.132;2023-09-19T03:11:16;15.60;99.90
8178;DHT22;4130;48.740;9.132;2023-09-19T03:13:51;15.60;99.90
8178;DHT22;4130;48.740;9.132;2023-09-19T03:16:18;15.70;99.90
8178;DHT22;4130;48.740;9.132;2023-09-19T03:18:47;15.70;99.90
8178;DHT22;4130;48.740;9.132;2023-09-19T03:21:15;15.80;99.90
8178;DHT22;4130;48.740;9.132;2023-09-19T03:23:42;15.80;99.90
8178;DHT22;4130;48.740;9.132;2023-09-19T03:26:11;15.80;99.90
8178;DHT22;4130;48.740;9.132;2023-09-19T03:28:43;15.80;99.90
8178;DHT22;4130;48.740;9.132;2023-09-19T03:31:11;15.80;99.90
8178;DHT22;4130;48.740;9.132;2023-09-19T03:33:39;15.80;99.90
8178;DHT22;4130;48.740;9.132;2023-09-19T03:36:06;15.80;99.90
8178;DHT22;4130;48.740;9.132;2023-09-19T03:38:33;15.80;99.90
8178;DHT22;4130;48.740;9.132;2023-09-19T03:41:01;15.80;99.90
8178;DHT22;4130;48.740;9.132;2023-09-19T03:43:28;15.80;99.90
8178;DHT22;4130;48.740;9.132;2023-09-19T03:45:56;15.80;99.90
8178;DHT22;4130;48.740;9.132;2023-09-19T03:48:23;15.90;99.90
8178;DHT22;4130;48.740;9.132;2023-09-19T03:50:50;15.90;99.90
8178;DHT22;4130;48.740;9.132;2023-09-19T03:53:18;15.90;99.90
8178;DHT22;4130;48.740;9.132;2023-09-19T03:55:45;16.00;99.90
8178;DHT22;4130;48.740;9.132;2023-09-19T03:58:12;16.00;99.90
8178;DHT22;4130;48.740;9.132;2023-09-19T04:00:39;16.00;99.90
8178;DHT22;4130;48.740;9.132;2023-09-19T04:03:08;15.90;99.90
8178;DHT22;4130;48.740;9.132;2023-09-19T04:05:36;15.90;99.90
8178;DHT22;4130;48.740;9.132;2023-09-19T04:08:04;15.90;99.90
8178;DHT22;4130;48.740;9.132;2023-09-19T04:10:31;15.90;99.90
8178;DHT22;4130;48.740;9.132;2023-09-19T04:12:58;15.80;99.90
8178;DHT22;4130;48.740;9.132;2023-09-19T04:15:25;15.70;99.90
8178;DHT22;4130;48.740;9.132;2023-09-19T04:17:52;15.70;99.90
8178;DHT22;4130;48.740;9.132;2023-09-19T04:20:21;15.60;99.90
8178;DHT22;4130;48.740;9.132;2023-09-19T04:22:49;15.60;99.90
8178;DHT22;4130;48.740;9.132;2023-09-19T04:25:16;15.60;99.90
8178;DHT22;4130;48.740;9.132;2023-09-19T04:27:44;15.70;99.90
8178;DHT22;4130;48.740;9.132;2023-09-19T04:30:12;15.60;99.90
8178;DHT22;4130;48.740;9.132;2023-09-19T04:32:40;15.60;99.90
8178;DHT22;4130;48.740;9.132;2023-09-19T04:35:08;15.70;99.90
8178;DHT22;4130;48.740;9.132;2023-09-19T04:37:39;15.70;99.90
8178;DHT22;4130;48.740;9.132;2023-09-19T04:40:08;15.70;99.90
8178;DHT22;4130;48.740;9.132;2023-09-19T04:42:39;15.70;99.90
8178;DHT22;4130;48.740;9.132;2023-09-19T04:45:08;15.70;99.90
8178;DHT22;4130;48.740;9.132;2023-09-19T04:47:36;15.70;99.90
8178;DHT22;4130;48.740;9.132;2023-09-19T04:50:07;15.80;99.90
8178;DHT22;4130;48.740;9.132;2023-09-19T04:52:39;15.80;99.90
8178;DHT22;4130;48.740;9.132;2023-09-19T04:55:08;15.80;99.90
8178;DHT22;4130;48.740;9.132;2023-09-19T04:57:36;15.80;99.90
8178;DHT22;4130;48.740;9.132;2023-09-19T05:00:05;15.80;99.90
8178;DHT22;4130;48.740;9.132;2023-09-19T05:02:38;15.70;99.90
8178;DHT22;4130;48.740;9.132;2023-09-19T05:05:06;15.70;99.90
8178;DHT22;4130;48.740;9.132;2023-09-19T05:07:34;15.70;99.90
8178;DHT22;4130;48.740;9.132;2023-09-19T05:10:03;15.60;99.90
8178;DHT22;4130;48.740;9.132;2023-09-19T05:12:33;15.60;99.90
8178;DHT22;4130;48.740;9.132;2023-09-19T05:15:01;15.50;99.90
8178;DHT22;4130;48.740;9.132;2023-09-19T05:17:28;15.40;99.90
8178;DHT22;4130;48.740;9.132;2023-09-19T05:19:55;15.40;99.90
8178;DHT22;4130;48.740;9.132;2023-09-19T05:22:23;15.40;99.90
8178;DHT22;4130;48.740;9.132;2023-09-19T05:24:51;15.40;99.90
8178;DHT22;4130;48.740;9.132;2023-09-19T05:27:20;15.30;99.90
8178;DHT22;4130;48.740;9.132;2023-09-19T05:29:47;15.40;99.90
8178;DHT22;4130;48.740;9.132;2023-09-19T05:32:14;15.30;99.90
8178;DHT22;4130;48.740;9.132;2023-09-19T05:34:41;15.30;99.90
8178;DHT22;4130;48.740;9.132;2023-09-19T05:37:08;15.30;99.90
8178;DHT22;4130;48.740;9.132;2023-09-19T05:39:35;15.30;99.90
8178;DHT22;4130;48.740;9.132;2023-09-19T05:42:03;15.30;99.90
8178;DHT22;4130;48.740;9.132;2023-09-19T05:44:31;15.40;99.90
8178;DHT22;4130;48.740;9.132;2023-09-19T05:46:58;15.40;99.90
8178;DHT22;4130;48.740;9.132;2023-09-19T05:49:25;15.40;99.90
8178;DHT22;4130;48.740;9.132;2023-09-19T05:51:53;15.40;99.90
8178;DHT22;4130;48.740;9.132;2023-09-19T05:54:22;15.40;99.90
8178;DHT22;4130;48.740;9.132;2023-09-19T05:56:49;15.40;99.90
8178;DHT22;4130;48.740;9.132;2023-09-19T05:59:18;15.40;99.90
8178;DHT22;4130;48.740;9.132;2023-09-19T06:01:46;15.40;99.90
8178;DHT22;4130;48.740;9.132;2023-09-19T06:04:13;15.30;99.90
8178;DHT22;4130;48.740;9.132;2023-09-19T06:06:40;15.20;99.90
8178;DHT22;4130;48.740;9.132;2023-09-19T06:09:07;15.10;99.90
8178;DHT22;4130;48.740;9.132;2023-09-19T06:11:34;15.10;99.90
8178;DHT22;4130;48.740;9.132;2023-09-19T06:14:01;15.10;99.90
8178;DHT22;4130;48.740;9.132;2023-09-19T06:16:28;15.00;99.90
8178;DHT22;4130;48.740;9.132;2023-09-19T06:18:58;15.00;99.90
8178;DHT22;4130;48.740;9.132;2023-09-19T06:21:27;15.00;99.90
8178;DHT22;4130;48.740;9.132;2023-09-19T06:23:57;14.90;99.90
8178;DHT22;4130;48.740;9.132;2023-09-19T06:26:24;14.80;99.90
8178;DHT22;4130;48.740;9.132;2023-09-19T06:28:52;14.80;99.90
8178;DHT22;4130;48.740;9.132;2023-09-19T06:31:21;14.80;99.90
8178;DHT22;4130;48.740;9.132;2023-09-19T06:33:51;14.80;99.90
8178;DHT22;4130;48.740;9.132;2023-09-19T06:36:20;14.90;99.90
8178;DHT22;4130;48.740;9.132;2023-09-19T06:38:47;14.90;99.90
8178;DHT22;4130;48.740;9.132;2023-09-19T06:41:16;14.90;99.90
8178;DHT22;4130;48.740;9.132;2023-09-19T06:43:43;14.90;99.90
8178;DHT22;4130;48.740;9.132;2023-09-19T06:46:10;15.00;99.90
8178;DHT22;4130;48.740;9.132;2023-09-19T06:48:38;15.00;99.90
8178;DHT22;4130;48.740;9.132;2023-09-19T06:51:05;15.00;99.90
8178;DHT22;4130;48.740;9.132;2023-09-19T06:53:33;15.00;99.90
8178;DHT22;4130;48.740;9.132;2023-09-19T06:56:01;15.00;99.90
8178;DHT22;4130;48.740;9.132;2023-09-19T06:58:28;15.10;99.90
8178;DHT22;4130;48.740;9.132;2023-09-19T07:00:55;15.20;99.90
8178;DHT22;4130;48.740;9.132;2023-09-19T07:03:22;15.20;99.90
8178;DHT22;4130;48.740;9.132;2023-09-19T07:05:52;15.20;99.90
8178;DHT22;4130;48.740;9.132;2023-09-19T07:08:21;15.30;99.90
8178;DHT22;4130;48.740;9.132;2023-09-19T07:10:50;15.30;99.90
8178;DHT22;4130;48.740;9.132;2023-09-19T07:13:19;15.40;99.90
8178;DHT22;4130;48.740;9.132;2023-09-19T07:15:46;15.40;99.90
8178;DHT22;4130;48.740;9.132;2023-09-19T07:18:14;15.40;99.90
8178;DHT22;4130;48.740;9.132;2023-09-19T07:20:42;15.40;99.90
8178;DHT22;4130;48.740;9.132;2023-09-19T07:23:15;15.50;99.90
8178;DHT22;4130;48.740;9.132;2023-09-19T07:25:44;15.40;99.90
8178;DHT22;4130;48.740;9.132;2023-09-19T07:28:13;15.40;99.90
8178;DHT22;4130;48.740;9.132;2023-09-19T07:30:40;15.50;99.90
8178;DHT22;4130;48.740;9.132;2023-09-19T07:33:07;15.60;99.90
8178;DHT22;4130;48.740;9.132;2023-09-19T07:35:36;15.60;99.90
8178;DHT22;4130;48.740;9.132;2023-09-19T07:38:05;15.70;99.90
8178;DHT22;4130;48.740;9.132;2023-09-19T07:40:32;15.70;99.90
8178;DHT22;4130;48.740;9.132;2023-09-19T07:42:59;15.70;99.90
8178;DHT22;4130;48.740;9.132;2023-09-19T07:45:28;15.70;99.90
8178;DHT22;4130;48.740;9.132;2023-09-19T07:47:56;15.60;99.90
8178;DHT22;4130;48.740;9.132;2023-09-19T07:50:23;15.60;99.90
8178;DHT22;4130;48.740;9.132;2023-09-19T07:52:52;15.60;99.90
8178;DHT22;4130;48.740;9.132;2023-09-19T07:55:20;15.70;99.90
8178;DHT22;4130;48.740;9.132;2023-09-19T07:57:51;15.70;99.90
8178;DHT22;4130;48.740;9.132;2023-09-19T08:00:18;15.80;99.90
8178;DHT22;4130;48.740;9.132;2023-09-19T08:02:47;15.80;99.90
8178;DHT22;4130;48.740;9.132;2023-09-19T08:05:14;15.80;99.90
8178;DHT22;4130;48.740;9.132;2023-09-19T08:07:43;15.90;99.90
8178;DHT22;4130;48.740;9.132;2023-09-19T08:10:11;15.90;99.90
8178;DHT22;4130;48.740;9.132;2023-09-19T08:12:39;15.90;99.90
8178;DHT22;4130;48.740;9.132;2023-09-19T08:15:12;16.00;99.90
8178;DHT22;4130;48.740;9.132;2023-09-19T08:17:39;16.20;99.90
8178;DHT22;4130;48.740;9.132;2023-09-19T08:20:08;16.30;99.90
8178;DHT22;4130;48.740;9.132;2023-09-19T08:22:43;16.30;99.90
8178;DHT22;4130;48.740;9.132;2023-09-19T08:25:11;16.40;99.90
8178;DHT22;4130;48.740;9.132;2023-09-19T08:27:38;16.50;99.90
8178;DHT22;4130;48.740;9.132;2023-09-19T08:30:06;16.60;99.90
8178;DHT22;4130;48.740;9.132;2023-09-19T08:32:33;16.60;99.90
8178;DHT22;4130;48.740;9.132;2023-09-19T08:35:04;16.70;99.90
8178;DHT22;4130;48.740;9.132;2023-09-19T08:37:32;16.70;99.90
8178;DHT22;4130;48.740;9.132;2023-09-19T08:39:59;16.90;99.90
8178;DHT22;4130;48.740;9.132;2023-09-19T08:42:26;16.80;99.90
8178;DHT22;4130;48.740;9.132;2023-09-19T08:44:55;16.80;99.90
8178;DHT22;4130;48.740;9.132;2023-09-19T08:47:30;16.80;99.90
8178;DHT22;4130;48.740;9.132;2023-09-19T08:50:04;16.80;99.90
8178;DHT22;4130;48.740;9.132;2023-09-19T08:52:42;16.80;99.90
8178;DHT22;4130;48.740;9.132;2023-09-19T08:55:12;16.80;99.90
8178;DHT22;4130;48.740;9.132;2023-09-19T08:57:46;16.80;99.90
8178;DHT22;4130;48.740;9.132;2023-09-19T09:05:25;17.10;99.90
8178;DHT22;4130;48.740;9.132;2023-09-19T09:07:54;17.30;99.90
8178;DHT22;4130;48.740;9.132;2023-09-19T09:10:23;17.30;99.90
8178;DHT22;4130;48.740;9.132;2023-09-19T09:12:52;17.30;99.90
8178;DHT22;4130;48.740;9.132;2023-09-19T09:15:22;17.40;99.90
8178;DHT22;4130;48.740;9.132;2023-09-19T09:17:50;17.50;99.90
8178;DHT22;4130;48.740;9.132;2023-09-19T09:20:19;18.00;99.90
8178;DHT22;4130;48.740;9.132;2023-09-19T09:22:55;17.90;99.90
8178;DHT22;4130;48.740;9.132;2023-09-19T09:25:51;18.10;99.90
8178;DHT22;4130;48.740;9.132;2023-09-19T09:28:23;18.30;99.90
8178;DHT22;4130;48.740;9.132;2023-09-19T09:30:51;18.30;99.90
8178;DHT22;4130;48.740;9.132;2023-09-19T09:33:18;18.30;99.90
8178;DHT22;4130;48.740;9.132;2023-09-19T09:35:50;18.30;99.90
8178;DHT22;4130;48.740;9.132;2023-09-19T09:38:19;18.30;99.90
8178;DHT22;4130;48.740;9.132;2023-09-19T09:40:48;18.10;99.90
8178;DHT22;4130;48.740;9.132;2023-09-19T09:43:28;18.70;99.90
8178;DHT22;4130;48.740;9.132;2023-09-19T09:46:12;17.90;99.90
8178;DHT22;4130;48.740;9.132;2023-09-19T09:48:58;18.30;99.90
8178;DHT22;4130;48.740;9.132;2023-09-19T09:51:43;18.30;99.90
8178;DHT22;4130;48.740;9.132;2023-09-19T09:54:14;18.20;99.90
8178;DHT22;4130;48.740;9.132;2023-09-19T09:56:55;18.10;99.90
8178;DHT22;4130;48.740;9.132;2023-09-19T09:59:47;17.90;99.90
8178;DHT22;4130;48.740;9.132;2023-09-19T10:02:16;17.90;99.90
8178;DHT22;4130;48.740;9.132;2023-09-19T10:04:49;17.80;99.90
8178;DHT22;4130;48.740;9.132;2023-09-19T10:07:25;18.70;99.90
8178;DHT22;4130;48.740;9.132;2023-09-19T10:09:57;18.50;99.90
8178;DHT22;4130;48.740;9.132;2023-09-19T10:12:31;18.90;99.90
8178;DHT22;4130;48.740;9.132;2023-09-19T10:15:00;18.30;99.90
8178;DHT22;4130;48.740;9.132;2023-09-19T10:17:29;19.60;99.90
8178;DHT22;4130;48.740;9.132;2023-09-19T10:19:57;19.60;99.90
8178;DHT22;4130;48.740;9.132;2023-09-19T10:22:26;19.50;99.90
8178;DHT22;4130;48.740;9.132;2023-09-19T10:24:57;20.20;99.90
8178;DHT22;4130;48.740;9.132;2023-09-19T10:27:26;20.10;99.90
8178;DHT22;4130;48.740;9.132;2023-09-19T10:29:57;20.40;99.90
8178;DHT22;4130;48.740;9.132;2023-09-19T10:32:28;20.80;99.90
8178;DHT22;4130;48.740;9.132;2023-09-19T10:34:59;21.10;99.90
8178;DHT22;4130;48.740;9.132;2023-09-19T10:37:27;21.40;99.90
8178;DHT22;4130;48.740;9.132;2023-09-19T10:39:58;21.70;99.90
8178;DHT22;4130;48.740;9.132;2023-09-19T10:42:27;21.60;99.90
8178;DHT22;4130;48.740;9.132;2023-09-19T10:44:55;21.60;99.60
8178;DHT22;4130;48.740;9.132;2023-09-19T10:47:27;21.60;99.70
8178;DHT22;4130;48.740;9.132;2023-09-19T10:49:54;22.40;98.30
8178;DHT22;4130;48.740;9.132;2023-09-19T10:52:24;21.50;98.70
8178;DHT22;4130;48.740;9.132;2023-09-19T10:54:53;21.70;98.80
8178;DHT22;4130;48.740;9.132;2023-09-19T10:57:24;21.90;99.00
8178;DHT22;4130;48.740;9.132;2023-09-19T11:00:03;22.40;97.20
8178;DHT22;4130;48.740;9.132;2023-09-19T11:03:18;21.70;97.10
8178;DHT22;4130;48.740;9.132;2023-09-19T11:06:01;21.40;96.50
8178;DHT22;4130;48.740;9.132;2023-09-19T11:09:08;21.30;96.70
8178;DHT22;4130;48.740;9.132;2023-09-19T11:11:52;21.00;96.60
8178;DHT22;4130;48.740;9.132;2023-09-19T11:14:42;20.80;96.60
8178;DHT22;4130;48.740;9.132;2023-09-19T11:17:40;21.00;97.40
8178;DHT22;4130;48.740;9.132;2023-09-19T11:20:22;21.20;97.20
8178;DHT22;4130;48.740;9.132;2023-09-19T11:23:20;21.30;95.80
8178;DHT22;4130;48.740;9.132;2023-09-19T11:25:52;21.20;96.80
8178;DHT22;4130;48.740;9.132;2023-09-19T11:28:35;21.30;96.90
8178;DHT22;4130;48.740;9.132;2023-09-19T11:31:41;21.10;95.90
8178;DHT22;4130;48.740;9.132;2023-09-19T11:34:39;20.60;95.30
8178;DHT22;4130;48.740;9.132;2023-09-19T11:40:19;20.00;96.00
8178;DHT22;4130;48.740;9.132;2023-09-19T11:42:48;19.90;95.90
8178;DHT22;4130;48.740;9.132;2023-09-19T11:48:26;20.20;96.10
8178;DHT22;4130;48.740;9.132;2023-09-19T11:50:54;20.90;95.20
8178;DHT22;4130;48.740;9.132;2023-09-19T11:53:23;20.70;95.40
8178;DHT22;4130;48.740;9.132;2023-09-19T11:55:52;21.00;95.50
8178;DHT22;4130;48.740;9.132;2023-09-19T11:58:19;22.20;95.30
8178;DHT22;4130;48.740;9.132;2023-09-19T12:00:54;20.90;94.90
8178;DHT22;4130;48.740;9.132;2023-09-19T12:03:23;21.20;95.20
8178;DHT22;4130;48.740;9.132;2023-09-19T12:05:50;21.00;95.50
8178;DHT22;4130;48.740;9.132;2023-09-19T12:08:18;20.00;95.00
8178;DHT22;4130;48.740;9.132;2023-09-19T12:10:47;19.90;95.20
8178;DHT22;4130;48.740;9.132;2023-09-19T12:13:19;19.80;95.50
8178;DHT22;4130;48.740;9.132;2023-09-19T12:15:46;19.70;95.70
8178;DHT22;4130;48.740;9.132;2023-09-19T12:18:26;19.80;96.00
8178;DHT22;4130;48.740;9.132;2023-09-19T12:20:53;20.00;95.70
8178;DHT22;4130;48.740;9.132;2023-09-19T12:23:22;20.30;96.10
8178;DHT22;4130;48.740;9.132;2023-09-19T12:25:51;20.20;95.20
8178;DHT22;4130;48.740;9.132;2023-09-19T12:28:20;20.40;95.10
8178;DHT22;4130;48.740;9.132;2023-09-19T12:30:48;20.80;95.20
8178;DHT22;4130;48.740;9.132;2023-09-19T12:33:17;21.00;94.70
8178;DHT22;4130;48.740;9.132;2023-09-19T12:35:45;21.10;95.20
8178;DHT22;4130;48.740;9.132;2023-09-19T12:38:23;21.40;94.90
8178;DHT22;4130;48.740;9.132;2023-09-19T12:40:50;21.40;95.40
8178;DHT22;4130;48.740;9.132;2023-09-19T12:43:19;21.80;94.80
8178;DHT22;4130;48.740;9.132;2023-09-19T12:45:47;22.10;94.50
8178;DHT22;4130;48.740;9.132;2023-09-19T12:48:18;22.40;94.00
8178;DHT22;4130;48.740;9.132;2023-09-19T12:51:00;22.40;94.30
8178;DHT22;4130;48.740;9.132;2023-09-19T12:53:32;22.60;94.20
8178;DHT22;4130;48.740;9.132;2023-09-19T12:55:59;22.20;94.40
8178;DHT22;4130;48.740;9.132;2023-09-19T12:58:28;22.30;94.00
8178;DHT22;4130;48.740;9.132;2023-09-19T13:00:58;22.40;93.70
8178;DHT22;4130;48.740;9.132;2023-09-19T13:03:26;22.50;93.60
8178;DHT22;4130;48.740;9.132;2023-09-19T13:05:55;22.50;93.40
8178;DHT22;4130;48.740;9.132;2023-09-19T13:08:27;22.70;93.90
8178;DHT22;4130;48.740;9.132;2023-09-19T13:11:03;23.10;93.50
8178;DHT22;4130;48.740;9.132;2023-09-19T13:13:33;22.90;92.50
8178;DHT22;4130;48.740;9.132;2023-09-19T13:16:02;22.70;92.70
8178;DHT22;4130;48.740;9.132;2023-09-19T13:18:30;22.30;93.10
8178;DHT22;4130;48.740;9.132;2023-09-19T13:21:08;22.40;93.10
8178;DHT22;4130;48.740;9.132;2023-09-19T13:23:42;22.50;93.70
8178;DHT22;4130;48.740;9.132;2023-09-19T13:26:10;23.40;94.00
8178;DHT22;4130;48.740;9.132;2023-09-19T13:28:40;22.80;93.60
8178;DHT22;4130;48.740;9.132;2023-09-19T13:31:07;22.80;92.80
8178;DHT22;4130;48.740;9.132;2023-09-19T13:33:43;22.50;93.20
8178;DHT22;4130;48.740;9.132;2023-09-19T13:36:10;22.20;93.40
8178;DHT22;4130;48.740;9.132;2023-09-19T13:38:37;22.20;93.60
8178;DHT22;4130;48.740;9.132;2023-09-19T13:41:05;22.00;92.80
8178;DHT22;4130;48.740;9.132;2023-09-19T13:43:32;22.10;93.40
8178;DHT22;4130;48.740;9.132;2023-09-19T13:46:00;22.00;92.90
8178;DHT22;4130;48.740;9.132;2023-09-19T13:48:27;22.10;92.80
8178;DHT22;4130;48.740;9.132;2023-09-19T13:50:55;21.90;92.50
8178;DHT22;4130;48.740;9.132;2023-09-19T13:53:22;21.90;92.30
8178;DHT22;4130;48.740;9.132;2023-09-19T13:55:49;22.00;92.50
8178;DHT22;4130;48.740;9.132;2023-09-19T13:58:15;21.90;92.20
8178;DHT22;4130;48.740;9.132;2023-09-19T14:00:42;22.50;92.90
8178;DHT22;4130;48.740;9.132;2023-09-19T14:03:10;22.20;92.40
8178;DHT22;4130;48.740;9.132;2023-09-19T14:05:37;22.00;92.20
8178;DHT22;4130;48.740;9.132;2023-09-19T14:08:05;22.40;92.20
8178;DHT22;4130;48.740;9.132;2023-09-19T14:10:32;21.70;92.30
8178;DHT22;4130;48.740;9.132;2023-09-19T14:13:01;21.70;92.70
8178;DHT22;4130;48.740;9.132;2023-09-19T14:15:28;21.70;92.70
8178;DHT22;4130;48.740;9.132;2023-09-19T14:18:00;21.70;92.20
8178;DHT22;4130;48.740;9.132;2023-09-19T14:20:28;22.20;92.90
8178;DHT22;4130;48.740;9.132;2023-09-19T14:23:04;22.20;93.30
8178;DHT22;4130;48.740;9.132;2023-09-19T14:25:38;21.90;92.50
8178;DHT22;4130;48.740;9.132;2023-09-19T14:28:10;22.00;92.50
8178;DHT22;4130;48.740;9.132;2023-09-19T14:30:36;22.30;92.20
8178;DHT22;4130;48.740;9.132;2023-09-19T14:33:04;22.40;92.90
8178;DHT22;4130;48.740;9.132;2023-09-19T14:35:37;21.70;92.70
8178;DHT22;4130;48.740;9.132;2023-09-19T14:38:04;21.70;92.00
8178;DHT22;4130;48.740;9.132;2023-09-19T14:40:31;22.10;92.00
8178;DHT22;4130;48.740;9.132;2023-09-19T14:42:57;21.90;91.80
8178;DHT22;4130;48.740;9.132;2023-09-19T14:45:24;22.00;91.80
8178;DHT22;4130;48.740;9.132;2023-09-19T14:47:52;21.80;92.10
8178;DHT22;4130;48.740;9.132;2023-09-19T14:50:21;21.80;91.40
8178;DHT22;4130;48.740;9.132;2023-09-19T14:52:49;22.00;90.80
8178;DHT22;4130;48.740;9.132;2023-09-19T14:55:17;21.90;90.70
8178;DHT22;4130;48.740;9.132;2023-09-19T14:57:49;21.80;91.10
8178;DHT22;4130;48.740;9.132;2023-09-19T15:00:17;21.80;91.40
8178;DHT22;4130;48.740;9.132;2023-09-19T15:02:46;21.70;90.70
8178;DHT22;4130;48.740;9.132;2023-09-19T15:05:15;21.70;90.80
8178;DHT22;4130;48.740;9.132;2023-09-19T15:07:42;21.70;91.20
8178;DHT22;4130;48.740;9.132;2023-09-19T15:10:10;22.80;91.70
8178;DHT22;4130;48.740;9.132;2023-09-19T15:12:39;21.40;90.70
8178;DHT22;4130;48.740;9.132;2023-09-19T15:15:07;21.50;90.50
8178;DHT22;4130;48.740;9.132;2023-09-19T15:17:35;21.50;90.70
8178;DHT22;4130;48.740;9.132;2023-09-19T15:20:05;21.80;91.10
8178;DHT22;4130;48.740;9.132;2023-09-19T15:22:35;21.70;90.90
8178;DHT22;4130;48.740;9.132;2023-09-19T15:25:02;21.70;91.30
8178;DHT22;4130;48.740;9.132;2023-09-19T15:27:31;21.70;91.10
8178;DHT22;4130;48.740;9.132;2023-09-19T15:29:59;21.70;91.00
8178;DHT22;4130;48.740;9.132;2023-09-19T15:32:28;21.60;90.50
8178;DHT22;4130;48.740;9.132;2023-09-19T15:34:55;21.70;90.60
8178;DHT22;4130;48.740;9.132;2023-09-19T15:37:23;21.70;90.80
8178;DHT22;4130;48.740;9.132;2023-09-19T15:39:51;21.40;91.00
8178;DHT22;4130;48.740;9.132;2023-09-19T15:42:19;21.40;90.70
8178;DHT22;4130;48.740;9.132;2023-09-19T15:44:47;21.40;90.80
8178;DHT22;4130;48.740;9.132;2023-09-19T15:47:16;22.30;91.60
8178;DHT22;4130;48.740;9.132;2023-09-19T15:49:45;21.40;91.20
8178;DHT22;4130;48.740;9.132;2023-09-19T15:52:13;21.30;90.70
8178;DHT22;4130;48.740;9.132;2023-09-19T15:54:41;21.80;91.40
8178;DHT22;4130;48.740;9.132;2023-09-19T15:57:11;21.30;91.40
8178;DHT22;4130;48.740;9.132;2023-09-19T15:59:39;21.30;90.90
8178;DHT22;4130;48.740;9.132;2023-09-19T16:02:08;21.30;91.00
8178;DHT22;4130;48.740;9.132;2023-09-19T16:04:35;21.20;91.20
8178;DHT22;4130;48.740;9.132;2023-09-19T16:07:03;21.00;91.40
8178;DHT22;4130;48.740;9.132;2023-09-19T16:09:30;21.70;91.60
8178;DHT22;4130;48.740;9.132;2023-09-19T16:11:57;21.10;91.20
8178;DHT22;4130;48.740;9.132;2023-09-19T16:14:24;21.10;91.80
8178;DHT22;4130;48.740;9.132;2023-09-19T16:16:52;21.10;91.30
8178;DHT22;4130;48.740;9.132;2023-09-19T16:19:21;21.40;91.90
8178;DHT22;4130;48.740;9.132;2023-09-19T16:21:48;21.10;92.10
8178;DHT22;4130;48.740;9.132;2023-09-19T16:24:14;21.10;92.10
8178;DHT22;4130;48.740;9.132;2023-09-19T16:26:42;21.10;91.80
8178;DHT22;4130;48.740;9.132;2023-09-19T16:29:09;21.10;91.70
8178;DHT22;4130;48.740;9.132;2023-09-19T16:31:37;21.00;91.80